createdAt,value
2024-01-05T00:00:14.787Z,98725.91
2024-01-05T00:02:42.380Z,98718.98
2024-01-05T00:05:10.040Z,98724.37
2024-01-05T00:07:37.605Z,98735.11
2024-01-05T00:10:05.151Z,98749.04
2024-01-05T00:12:32.885Z,98746.21
2024-01-05T00:15:00.719Z,98756.85
2024-01-05T00:17:28.440Z,98754.55
2024-01-05T00:19:56.065Z,98763.91
2024-01-05T00:22:23.672Z,98769.87
2024-01-05T00:24:51.644Z,98771.88
2024-01-05T00:27:19.259Z,98777.82
2024-01-05T00:29:46.954Z,98779.92
2024-01-05T00:32:17.098Z,98781.11
2024-01-05T00:34:46.273Z,98776.09
2024-01-05T00:37:13.939Z,98776.39
2024-01-05T00:39:41.622Z,98775.56
2024-01-05T00:42:09.265Z,98782.05
2024-01-05T00:44:37.118Z,98786.98
2024-01-05T00:47:04.683Z,98792.84
2024-01-05T00:49:32.377Z,98794.30
2024-01-05T00:52:00.012Z,98805.17
2024-01-05T00:54:27.506Z,98809.38
2024-01-05T00:56:55.150Z,98815.23
2024-01-05T00:59:22.893Z,98818.92
2024-01-05T01:01:50.547Z,98827.95
2024-01-05T01:04:18.240Z,98831.23
2024-01-05T01:06:46.183Z,98835.13
2024-01-05T01:09:14.384Z,98837.85
2024-01-05T01:11:42.041Z,98844.52
2024-01-05T01:14:09.580Z,98849.93
2024-01-05T01:16:37.243Z,98845.67
2024-01-05T01:19:05.219Z,98839.90
2024-01-05T01:21:33.125Z,98831.87
2024-01-05T01:24:00.980Z,98819.18
2024-01-05T01:26:28.799Z,98816.36
2024-01-05T01:28:56.349Z,98833.64
2024-01-05T01:31:23.972Z,98828.86
2024-01-05T01:33:52.069Z,98829.70
2024-01-05T01:36:19.892Z,98825.25
2024-01-05T01:38:47.515Z,98819.70
2024-01-05T01:41:15.168Z,98821.23
2024-01-05T01:43:42.833Z,98816.97
2024-01-05T01:46:10.387Z,98818.52
2024-01-05T01:48:38.083Z,98817.55
2024-01-05T01:51:05.873Z,98820.15
2024-01-05T01:53:33.955Z,98821.63
2024-01-05T01:56:01.661Z,98820.65
2024-01-05T01:58:29.312Z,98822.00
2024-01-05T02:00:57.037Z,98825.75
2024-01-05T02:03:24.732Z,98822.40
2024-01-05T02:05:52.432Z,98824.21
2024-01-05T02:08:20.176Z,98830.21
2024-01-05T02:10:47.716Z,98827.10
2024-01-05T02:13:15.381Z,98828.81
2024-01-05T02:15:42.940Z,98829.50
2024-01-05T02:18:10.626Z,98833.23
2024-01-05T02:20:38.373Z,98833.20
2024-01-05T02:23:06.024Z,98831.25
2024-01-05T02:25:33.598Z,98836.35
2024-01-05T02:28:01.250Z,98835.73
2024-01-05T02:30:29.013Z,98841.79
2024-01-05T02:32:56.826Z,98841.92
2024-01-05T02:35:24.544Z,98847.15
2024-01-05T02:37:52.196Z,98848.81
2024-01-05T02:40:19.768Z,98848.02
2024-01-05T02:42:47.422Z,98854.18
2024-01-05T02:45:15.016Z,98852.35
2024-01-05T02:47:42.677Z,98858.91
2024-01-05T02:50:10.404Z,98862.13
2024-01-05T02:52:38.065Z,98868.65
2024-01-05T02:55:05.620Z,98870.13
2024-01-05T02:57:33.264Z,98867.44
2024-01-05T03:00:01.113Z,98872.80
2024-01-05T03:02:28.812Z,98876.45
2024-01-05T03:04:56.505Z,98875.63
2024-01-05T03:07:24.234Z,98879.79
2024-01-05T03:09:51.918Z,98876.95
2024-01-05T03:12:19.497Z,98882.92
2024-01-05T03:14:47.526Z,98879.16
2024-01-05T03:17:15.082Z,98879.45
2024-01-05T03:19:42.616Z,98878.20
2024-01-05T03:22:10.502Z,98879.37
2024-01-05T03:24:38.062Z,98878.62
2024-01-05T03:27:05.732Z,98874.69
2024-01-05T03:29:33.412Z,98875.46
2024-01-05T03:32:01.046Z,98873.84
2024-01-05T03:34:28.535Z,98877.68
2024-01-05T03:36:56.482Z,98876.66
2024-01-05T03:39:23.972Z,98882.89
2024-01-05T03:41:51.625Z,98882.77
2024-01-05T03:44:19.252Z,98882.23
2024-01-05T03:46:46.814Z,98885.44
2024-01-05T03:49:14.535Z,98882.48
2024-01-05T03:51:42.238Z,98878.81
2024-01-05T03:54:09.874Z,98876.95
2024-01-05T03:56:37.673Z,98874.38
2024-01-05T03:59:05.337Z,98866.89
2024-01-05T04:01:32.918Z,98862.16
2024-01-05T04:04:01.029Z,98863.00
2024-01-05T04:06:28.683Z,98869.68
2024-01-05T04:08:56.398Z,98871.69
2024-01-05T04:11:24.049Z,98874.19
2024-01-05T04:13:51.708Z,98872.20
2024-01-05T04:16:19.362Z,98865.77
2024-01-05T04:18:47.044Z,98867.93
2024-01-05T04:21:14.724Z,98867.41
2024-01-05T04:23:42.358Z,98857.63
2024-01-05T04:26:10.011Z,98863.18
2024-01-05T04:28:37.565Z,98863.29
2024-01-05T04:31:05.283Z,98862.43
2024-01-05T04:33:32.990Z,98862.73
2024-01-05T04:36:00.674Z,98861.02
2024-01-05T04:38:28.315Z,98868.93
2024-01-05T04:40:55.874Z,98871.79
2024-01-05T04:43:23.852Z,98875.38
2024-01-05T04:45:51.507Z,98873.27
2024-01-05T04:48:19.178Z,98873.60
2024-01-05T04:50:46.830Z,98870.14
2024-01-05T04:53:14.375Z,98876.94
2024-01-05T04:55:41.946Z,98886.63
2024-01-05T04:58:09.502Z,98896.45
2024-01-05T05:00:37.892Z,98902.69
2024-01-05T05:03:05.629Z,98907.63
2024-01-05T05:05:33.541Z,98911.59
2024-01-05T05:08:01.096Z,98912.30
2024-01-05T05:10:28.722Z,98918.33
2024-01-05T05:12:56.289Z,98920.59
2024-01-05T05:15:23.897Z,98918.86
2024-01-05T05:17:54.333Z,98918.29
2024-01-05T05:20:22.259Z,98914.61
2024-01-05T05:22:49.809Z,98914.19
2024-01-05T05:25:17.692Z,98911.59
2024-01-05T05:27:45.328Z,98910.86
2024-01-05T05:30:13.003Z,98910.47
2024-01-05T05:32:40.767Z,98905.02
2024-01-05T05:35:08.360Z,98908.31
2024-01-05T05:37:35.965Z,98912.11
2024-01-05T05:40:03.529Z,98911.28
2024-01-05T05:42:31.267Z,98899.70
2024-01-05T05:44:58.992Z,98895.59
2024-01-05T05:47:26.657Z,98900.09
2024-01-05T05:49:54.472Z,98904.90
2024-01-05T05:52:22.239Z,98906.05
2024-01-05T05:54:49.804Z,98900.28
2024-01-05T05:57:17.415Z,98897.39
2024-01-05T05:59:45.130Z,98902.05
2024-01-05T06:02:12.789Z,98897.29
2024-01-05T06:04:40.805Z,98894.71
2024-01-05T06:07:08.474Z,98895.47
2024-01-05T06:09:36.202Z,98891.62
2024-01-05T06:12:03.906Z,98886.77
2024-01-05T06:14:31.403Z,98883.41
2024-01-05T06:16:59.078Z,98877.61
2024-01-05T06:19:26.812Z,98878.81
2024-01-05T06:21:54.487Z,98884.41
2024-01-05T06:24:22.033Z,98883.65
2024-01-05T06:26:49.731Z,98884.90
2024-01-05T06:29:17.713Z,98881.77
2024-01-05T06:31:45.760Z,98879.73
2024-01-05T06:34:13.992Z,98877.13
2024-01-05T06:36:41.761Z,98870.24
2024-01-05T06:39:09.571Z,98860.06
2024-01-05T06:41:37.204Z,98854.95
2024-01-05T06:44:04.867Z,98855.23
2024-01-05T06:46:32.438Z,98854.19
2024-01-05T06:49:00.410Z,98859.61
2024-01-05T06:51:28.190Z,98868.04
2024-01-05T06:53:56.273Z,98869.64
2024-01-05T06:56:23.991Z,98872.17
2024-01-05T06:58:51.545Z,98878.77
2024-01-05T07:01:19.284Z,98876.14
2024-01-05T07:03:47.025Z,98873.27
2024-01-05T07:06:14.692Z,98870.77
2024-01-05T07:08:42.426Z,98870.55
2024-01-05T07:11:10.064Z,98866.65
2024-01-05T07:13:37.734Z,98860.88
2024-01-05T07:16:05.296Z,98852.95
2024-01-05T07:18:33.075Z,98843.66
2024-01-05T07:21:00.736Z,98840.34
2024-01-05T07:23:28.374Z,98837.06
2024-01-05T07:25:55.929Z,98843.77
2024-01-05T07:28:23.588Z,98841.36
2024-01-05T07:30:51.193Z,98848.27
2024-01-05T07:33:19.279Z,98851.20
2024-01-05T07:35:47.085Z,98847.02
2024-01-05T07:38:14.657Z,98845.34
2024-01-05T07:40:42.351Z,98848.19
2024-01-05T07:43:09.970Z,98849.13
2024-01-05T07:45:37.653Z,98847.96
2024-01-05T07:48:05.396Z,98846.91
2024-01-05T07:50:33.055Z,98840.84
2024-01-05T07:53:00.610Z,98841.47
2024-01-05T07:55:28.200Z,98836.71
2024-01-05T07:57:55.863Z,98835.10
2024-01-05T08:00:23.629Z,98831.16
2024-01-05T08:02:51.413Z,98828.84
2024-01-05T08:05:19.161Z,98827.48
2024-01-05T08:07:46.991Z,98829.10
2024-01-05T08:10:14.555Z,98826.48
2024-01-05T08:12:42.207Z,98828.07
2024-01-05T08:15:10.242Z,98832.61
2024-01-05T08:17:38.116Z,98832.83
2024-01-05T08:20:05.900Z,98837.06
2024-01-05T08:22:33.593Z,98833.89
2024-01-05T08:25:01.131Z,98829.34
2024-01-05T08:27:28.815Z,98826.61
2024-01-05T08:29:56.474Z,98834.11
2024-01-05T08:32:24.118Z,98842.63
2024-01-05T08:34:52.107Z,98842.55
2024-01-05T08:37:19.838Z,98844.89
2024-01-05T08:39:47.449Z,98855.48
2024-01-05T08:42:15.529Z,98861.52
2024-01-05T08:44:43.443Z,98855.54
2024-01-05T08:47:11.115Z,98857.88
2024-01-05T08:49:39.117Z,98857.10
2024-01-05T08:52:06.933Z,98856.30
2024-01-05T08:54:34.942Z,98856.93
2024-01-05T08:57:02.575Z,98863.15
2024-01-05T08:59:36.515Z,98860.85
2024-01-05T09:02:04.261Z,98856.38
2024-01-05T09:04:31.794Z,98859.84
2024-01-05T09:06:59.462Z,98855.17
2024-01-05T09:09:27.071Z,98847.69
2024-01-05T09:11:54.811Z,98849.13
2024-01-05T09:14:22.969Z,98854.61
2024-01-05T09:16:50.521Z,98848.70
2024-01-05T09:19:19.482Z,98844.58
2024-01-05T09:21:48.803Z,98849.04
2024-01-05T09:24:16.372Z,98860.64
2024-01-05T09:26:44.025Z,98862.94
2024-01-05T09:29:11.587Z,98860.83
2024-01-05T09:31:39.280Z,98851.50
2024-01-05T09:34:07.074Z,98846.81
2024-01-05T09:36:34.777Z,98841.45
2024-01-05T09:39:02.553Z,98845.65
2024-01-05T09:41:30.501Z,98848.67
2024-01-05T09:43:58.349Z,98845.75
2024-01-05T09:46:26.030Z,98841.28
2024-01-05T09:48:55.132Z,98844.64
2024-01-05T09:51:23.237Z,98847.24
2024-01-05T09:53:50.973Z,98849.64
2024-01-05T09:56:18.528Z,98852.84
2024-01-05T09:58:46.207Z,98853.21
2024-01-05T10:01:14.088Z,98849.91
2024-01-05T10:03:41.803Z,98841.92
2024-01-05T10:06:09.605Z,98842.79
2024-01-05T10:08:37.335Z,98833.33
2024-01-05T10:11:04.906Z,98832.51
2024-01-05T10:13:32.453Z,98837.11
2024-01-05T10:16:00.123Z,98832.73
2024-01-05T10:18:27.785Z,98826.50
2024-01-05T10:20:55.441Z,98818.70
2024-01-05T10:23:23.319Z,98817.27
2024-01-05T10:25:50.974Z,98819.06
2024-01-05T10:28:18.514Z,98819.29
2024-01-05T10:30:46.274Z,98814.19
2024-01-05T10:33:14.125Z,98809.84
2024-01-05T10:38:09.684Z,98808.07
2024-01-05T10:40:37.572Z,98801.77
2024-01-05T10:43:05.310Z,98797.09
2024-01-05T10:45:32.941Z,98795.65
2024-01-05T10:48:00.697Z,98801.29
2024-01-05T10:50:28.490Z,98802.70
2024-01-05T10:52:56.064Z,98804.88
2024-01-05T10:55:23.832Z,98801.60
2024-01-05T10:57:51.573Z,98797.77
2024-01-05T11:00:19.160Z,98798.90
2024-01-05T11:02:47.103Z,98794.77
2024-01-05T11:05:15.435Z,98788.83
2024-01-05T11:07:43.844Z,98784.35
2024-01-05T11:10:14.703Z,98781.82
2024-01-05T11:12:42.422Z,98778.62
2024-01-05T11:15:10.168Z,98773.06
2024-01-05T11:17:37.867Z,98773.70
2024-01-05T11:20:05.660Z,98771.00
2024-01-05T11:22:33.423Z,98769.64
2024-01-05T11:25:00.989Z,98760.30
2024-01-05T11:27:28.641Z,98751.55
2024-01-05T11:29:56.434Z,98745.10
2024-01-05T11:32:24.053Z,98740.23
2024-01-05T11:34:51.899Z,98736.00
2024-01-05T11:37:19.598Z,98728.79
2024-01-05T11:39:47.418Z,98727.80
2024-01-05T11:42:15.545Z,98724.58
2024-01-05T11:44:43.290Z,98718.50
2024-01-05T11:47:10.940Z,98717.80
2024-01-05T11:49:38.574Z,98712.39
2024-01-05T11:52:06.375Z,98703.46
2024-01-05T11:54:33.760Z,98702.02
2024-01-05T11:57:01.360Z,98699.05
2024-01-05T11:59:29.152Z,98700.65
2024-01-05T12:01:56.816Z,98700.60
2024-01-05T12:04:24.425Z,98706.23
2024-01-05T12:06:52.612Z,98706.60
2024-01-05T12:09:20.249Z,98701.98
2024-01-05T12:11:47.981Z,98695.89
2024-01-05T12:14:15.541Z,98697.80
2024-01-05T12:16:43.189Z,98698.14
2024-01-05T12:19:11.024Z,98695.88
2024-01-05T12:21:38.752Z,98693.02
2024-01-05T12:24:06.486Z,98686.77
2024-01-05T12:26:33.939Z,98687.64
2024-01-05T12:29:01.598Z,98687.94
2024-01-05T12:31:29.503Z,98687.70
2024-01-05T12:33:57.393Z,98688.01
2024-01-05T12:36:25.307Z,98688.84
2024-01-05T12:38:53.088Z,98690.92
2024-01-05T12:41:21.347Z,98684.63
2024-01-05T12:43:49.208Z,98675.41
2024-01-05T12:46:16.756Z,98672.41
2024-01-05T12:48:44.517Z,98673.67
2024-01-05T12:51:12.739Z,98667.52
2024-01-05T12:53:40.358Z,98666.88
2024-01-05T12:56:08.020Z,98661.56
2024-01-05T12:58:36.128Z,98661.47
2024-01-05T13:01:04.020Z,98661.63
2024-01-05T13:03:31.686Z,98666.67
2024-01-05T13:05:59.582Z,98668.55
2024-01-05T13:08:27.255Z,98662.15
2024-01-05T13:10:54.798Z,98656.85
2024-01-05T13:13:22.765Z,98649.10
2024-01-05T13:15:50.359Z,98647.95
2024-01-05T13:18:18.202Z,98637.21
2024-01-05T13:20:45.966Z,98634.97
2024-01-05T13:23:15.370Z,98633.92
2024-01-05T13:25:44.462Z,98631.73
2024-01-05T13:28:12.141Z,98628.31
2024-01-05T13:30:39.801Z,98626.46
2024-01-05T13:33:07.866Z,98627.41
2024-01-05T13:35:35.528Z,98625.27
2024-01-05T13:38:03.200Z,98614.43
2024-01-05T13:40:30.838Z,98608.88
2024-01-05T13:42:58.404Z,98614.56
2024-01-05T13:45:26.129Z,98609.36
2024-01-05T13:47:53.831Z,98618.05
2024-01-05T13:50:21.506Z,98619.67
2024-01-05T13:52:49.449Z,98614.41
2024-01-05T13:55:17.048Z,98619.81
2024-01-05T13:57:44.808Z,98626.89
2024-01-05T14:00:12.575Z,98625.20
2024-01-05T14:02:40.263Z,98630.27
2024-01-05T14:05:07.872Z,98640.70
2024-01-05T14:07:35.421Z,98638.83
2024-01-05T14:10:02.990Z,98639.92
2024-01-05T14:12:30.568Z,98632.33
2024-01-05T14:14:58.201Z,98626.80
2024-01-05T14:17:25.894Z,98625.70
2024-01-05T14:19:53.778Z,98627.23
2024-01-05T14:22:21.594Z,98624.67
2024-01-05T14:24:49.251Z,98631.06
2024-01-05T14:27:16.924Z,98630.99
2024-01-05T14:29:44.473Z,98620.64
2024-01-05T14:32:12.235Z,98615.77
2024-01-05T14:34:42.443Z,98614.20
2024-01-05T14:37:10.335Z,98611.73
2024-01-05T14:39:38.122Z,98605.27
2024-01-05T14:42:05.765Z,98604.08
2024-01-05T14:44:33.198Z,98609.55
2024-01-05T14:47:00.754Z,98613.18
2024-01-05T14:49:28.423Z,98610.38
2024-01-05T14:51:56.185Z,98608.09
2024-01-05T14:54:23.867Z,98606.59
2024-01-05T14:56:51.812Z,98608.88
2024-01-05T14:59:19.378Z,98610.64
2024-01-05T15:01:46.961Z,98612.56
2024-01-05T15:04:14.761Z,98619.13
2024-01-05T15:06:42.735Z,98621.37
2024-01-05T15:09:10.486Z,98613.48
2024-01-05T15:11:38.110Z,98610.41
2024-01-05T15:14:05.750Z,98609.61
2024-01-05T15:16:33.433Z,98609.70
2024-01-05T15:19:01.392Z,98611.79
2024-01-05T15:21:29.132Z,98611.69
2024-01-05T15:23:56.809Z,98606.66
2024-01-05T15:26:24.487Z,98604.83
2024-01-05T15:28:52.026Z,98602.55
2024-01-05T15:31:19.780Z,98600.45
2024-01-05T15:33:47.713Z,98600.23
2024-01-05T15:36:15.452Z,98603.30
2024-01-05T15:38:42.980Z,98606.35
2024-01-05T15:41:10.646Z,98610.64
2024-01-05T15:43:38.198Z,98607.58
2024-01-05T15:46:05.888Z,98604.83
2024-01-05T15:48:33.540Z,98600.19
2024-01-05T15:51:01.398Z,98597.25
2024-01-05T15:53:29.064Z,98600.05
2024-01-05T15:55:59.074Z,98599.78
2024-01-05T15:58:27.241Z,98599.03
2024-01-05T16:00:55.219Z,98606.85
2024-01-05T16:03:22.936Z,98612.52
2024-01-05T16:05:50.889Z,98609.19
2024-01-05T16:08:18.604Z,98609.94
2024-01-05T16:10:46.149Z,98607.09
2024-01-05T16:13:13.823Z,98606.64
2024-01-05T16:15:41.516Z,98614.59
2024-01-05T16:18:09.177Z,98613.62
2024-01-05T16:20:37.001Z,98618.93
2024-01-05T16:23:04.975Z,98620.86
2024-01-05T16:25:32.637Z,98620.28
2024-01-05T16:28:00.277Z,98625.41
2024-01-05T16:30:28.131Z,98628.13
2024-01-05T16:32:55.845Z,98629.19
2024-01-05T16:35:23.492Z,98634.23
2024-01-05T16:37:51.134Z,98634.46
2024-01-05T16:40:18.997Z,98634.67
2024-01-05T16:42:46.693Z,98629.39
2024-01-05T16:45:14.368Z,98627.91
2024-01-05T16:47:42.059Z,98622.30
2024-01-05T16:50:09.761Z,98620.84
2024-01-05T16:52:37.406Z,98619.03
2024-01-05T16:55:05.099Z,98612.98
2024-01-05T16:57:32.877Z,98608.02
2024-01-05T17:00:00.490Z,98608.02
2024-01-05T17:02:28.470Z,98606.09
2024-01-05T17:04:56.051Z,98604.35
2024-01-05T17:07:23.707Z,98603.60
2024-01-05T17:09:51.324Z,98601.81
2024-01-05T17:12:19.147Z,98598.43
2024-01-05T17:14:46.791Z,98597.16
2024-01-05T17:17:14.649Z,98595.27
2024-01-05T17:19:42.394Z,98589.13
2024-01-05T17:22:10.274Z,98585.63
2024-01-05T17:24:37.676Z,98587.27
2024-01-05T17:27:05.309Z,98590.48
2024-01-05T17:29:33.054Z,98593.44
2024-01-05T17:32:00.617Z,98594.85
2024-01-05T17:34:28.273Z,98599.23
2024-01-05T17:36:55.851Z,98599.04
2024-01-05T17:39:23.309Z,98601.30
2024-01-05T17:41:50.950Z,98607.55
2024-01-05T17:44:18.617Z,98606.36
2024-01-05T17:46:46.287Z,98602.08
2024-01-05T17:49:14.446Z,98603.16
2024-01-05T17:51:42.206Z,98602.04
2024-01-05T17:54:10.009Z,98600.65
2024-01-05T17:56:37.655Z,98594.67
2024-01-05T17:59:05.292Z,98598.09
2024-01-05T18:01:33.165Z,98602.77
2024-01-05T18:04:01.366Z,98602.25
2024-01-05T18:06:29.409Z,98604.62
2024-01-05T18:08:57.072Z,98606.99
2024-01-05T18:11:24.967Z,98595.45
2024-01-05T18:13:52.699Z,98593.83
2024-01-05T18:16:20.269Z,98594.39
2024-01-05T18:18:48.001Z,98600.95
2024-01-05T18:21:15.708Z,98601.95
2024-01-05T18:23:43.338Z,98599.05
2024-01-05T18:26:11.023Z,98600.27
2024-01-05T18:28:38.564Z,98602.64
2024-01-05T18:31:06.487Z,98606.05
2024-01-05T18:33:34.281Z,98607.09
2024-01-05T18:36:02.075Z,98605.52
2024-01-05T18:38:29.613Z,98606.29
2024-01-05T18:40:57.276Z,98605.04
2024-01-05T18:43:24.944Z,98611.17
2024-01-05T18:45:52.547Z,98613.27
2024-01-05T18:48:20.546Z,98609.50
2024-01-05T18:50:48.674Z,98617.48
2024-01-05T18:53:16.297Z,98621.22
2024-01-05T18:55:43.965Z,98621.50
2024-01-05T18:58:11.519Z,98621.14
2024-01-05T19:00:39.260Z,98622.77
2024-01-05T19:03:07.047Z,98623.05
2024-01-05T19:05:34.988Z,98624.70
2024-01-05T19:08:02.668Z,98624.92
2024-01-05T19:10:30.335Z,98622.95
2024-01-05T19:12:58.278Z,98620.58
2024-01-05T19:15:25.999Z,98614.04
2024-01-05T19:17:53.813Z,98614.19
2024-01-05T19:20:21.708Z,98610.12
2024-01-05T19:22:49.356Z,98608.79
2024-01-05T19:25:17.026Z,98611.14
2024-01-05T19:27:44.657Z,98613.09
2024-01-05T19:30:12.522Z,98610.83
2024-01-05T19:32:40.620Z,98608.90
2024-01-05T19:35:08.331Z,98602.17
2024-01-05T19:37:36.045Z,98599.58
2024-01-05T19:40:03.603Z,98598.32
2024-01-05T19:42:31.201Z,98599.78
2024-01-05T19:44:58.825Z,98599.77
2024-01-05T19:47:26.594Z,98603.43
2024-01-05T19:49:54.506Z,98596.51
2024-01-05T19:52:22.630Z,98592.13
2024-01-05T19:54:50.283Z,98592.65
2024-01-05T19:57:17.858Z,98594.59
2024-01-05T19:59:45.494Z,98593.55
2024-01-05T20:02:13.061Z,98596.48
2024-01-05T20:04:40.617Z,98600.61
2024-01-05T20:07:08.305Z,98604.39
2024-01-05T20:09:36.098Z,98602.36
2024-01-05T20:12:03.871Z,98596.88
2024-01-05T20:14:31.468Z,98596.23
2024-01-05T20:16:59.447Z,98595.48
2024-01-05T20:19:27.179Z,98597.39
2024-01-05T20:21:55.014Z,98595.71
2024-01-05T20:24:23.472Z,98592.98
2024-01-05T20:26:51.104Z,98589.04
2024-01-05T20:29:18.680Z,98585.98
2024-01-05T20:31:46.407Z,98586.44
2024-01-05T20:34:14.293Z,98583.73
2024-01-05T20:36:41.973Z,98583.89
2024-01-05T20:39:09.958Z,98579.58
2024-01-05T20:41:37.595Z,98583.45
2024-01-05T20:44:05.250Z,98583.04
2024-01-05T20:46:32.910Z,98586.52
2024-01-05T20:49:00.616Z,98587.73
2024-01-05T20:51:28.479Z,98588.15
2024-01-05T20:53:56.101Z,98582.91
2024-01-05T20:56:23.689Z,98583.92
2024-01-05T20:58:51.625Z,98577.88
2024-01-05T21:01:19.388Z,98579.98
2024-01-05T21:03:47.560Z,98578.11
2024-01-05T21:06:15.284Z,98578.38
2024-01-05T21:08:43.100Z,98580.49
2024-01-05T21:11:10.756Z,98584.02
2024-01-05T21:13:38.316Z,98589.47
2024-01-05T21:16:05.877Z,98593.13
2024-01-05T21:18:33.552Z,98590.77
2024-01-05T21:21:02.248Z,98586.34
2024-01-05T21:23:30.188Z,98584.39
2024-01-05T21:25:57.761Z,98576.23
2024-01-05T21:28:25.406Z,98573.66
2024-01-05T21:30:53.148Z,98574.28
2024-01-05T21:33:20.907Z,98569.20
2024-01-05T21:35:48.697Z,98566.14
2024-01-05T21:38:16.254Z,98565.48
2024-01-05T21:40:43.706Z,98564.73
2024-01-05T21:43:11.269Z,98566.80
2024-01-05T21:45:38.886Z,98566.58
2024-01-05T21:48:06.691Z,98563.45
2024-01-05T21:50:34.475Z,98563.20
2024-01-05T21:53:02.023Z,98558.02
2024-01-05T21:55:29.682Z,98556.38
2024-01-05T21:57:57.565Z,98553.73
2024-01-05T22:00:25.267Z,98553.59
2024-01-05T22:02:52.915Z,98552.05
2024-01-05T22:05:20.533Z,98552.21
2024-01-05T22:07:48.192Z,98552.36
2024-01-05T22:10:16.203Z,98552.38
2024-01-05T22:12:43.853Z,98547.73
2024-01-05T22:15:11.720Z,98548.70
2024-01-05T22:17:39.406Z,98538.50
2024-01-05T22:20:07.587Z,98531.83
2024-01-05T22:22:35.185Z,98536.04
2024-01-05T22:25:02.750Z,98536.73
2024-01-05T22:27:30.427Z,98530.21
2024-01-05T22:29:57.964Z,98528.88
2024-01-05T22:32:25.656Z,98531.61
2024-01-05T22:34:53.269Z,98527.45
2024-01-05T22:37:20.938Z,98525.95
2024-01-05T22:39:48.639Z,98526.80
2024-01-05T22:42:16.502Z,98522.84
2024-01-05T22:44:44.036Z,98524.23
2024-01-05T22:47:11.694Z,98526.02
2024-01-05T22:49:39.461Z,98522.67
2024-01-05T22:52:07.102Z,98517.42
2024-01-05T22:54:34.499Z,98522.77
2024-01-05T22:57:02.015Z,98520.55
2024-01-05T22:59:29.698Z,98523.38
2024-01-05T23:01:57.568Z,98527.81
2024-01-05T23:04:25.282Z,98530.27
2024-01-05T23:06:53.057Z,98533.31
2024-01-05T23:09:20.793Z,98533.30
2024-01-05T23:11:48.506Z,98528.48
2024-01-05T23:14:16.170Z,98532.19
2024-01-05T23:16:43.834Z,98536.54
2024-01-05T23:19:11.582Z,98536.44
2024-01-05T23:21:39.286Z,98537.34
2024-01-05T23:24:07.063Z,98536.09
2024-01-05T23:26:34.580Z,98534.95
2024-01-05T23:29:02.137Z,98535.16
2024-01-05T23:31:29.948Z,98533.17
2024-01-05T23:34:07.859Z,98532.20
2024-01-05T23:36:41.359Z,98534.73
2024-01-05T23:39:09.104Z,98536.36
2024-01-05T23:41:36.816Z,98531.89
2024-01-05T23:44:04.395Z,98529.59
2024-01-05T23:46:32.075Z,98527.58
2024-01-05T23:48:59.802Z,98528.00
2024-01-05T23:51:27.523Z,98526.98
2024-01-05T23:53:55.039Z,98524.75
2024-01-05T23:56:22.595Z,98520.70
2024-01-05T23:58:50.246Z,98515.81
